createdAt,value
2022-12-31T01:27:57.628Z,74.38
2022-12-31T01:30:27.487Z,74.25
2022-12-31T01:32:55.846Z,74.68
2022-12-31T01:35:24.323Z,74.53
2022-12-31T01:37:52.809Z,75.93
2022-12-31T01:40:21.408Z,76.72
2022-12-31T01:42:56.599Z,77.13
2022-12-31T01:45:26.776Z,76.38
2022-12-31T01:47:58.852Z,76.65
2022-12-31T01:50:32.066Z,86.45
2022-12-31T01:53:04.526Z,89.00
2022-12-31T01:55:39.513Z,79.03
2022-12-31T01:58:13.137Z,82.25
2022-12-31T02:00:43.603Z,80.93
2022-12-31T02:03:12.956Z,77.35
2022-12-31T02:08:15.911Z,78.07
2022-12-31T02:10:44.313Z,78.50
2022-12-31T02:13:13.273Z,78.22
2022-12-31T02:15:52.406Z,79.13
2022-12-31T02:18:31.601Z,75.93
2022-12-31T02:24:47.324Z,76.68
2022-12-31T02:27:29.417Z,76.43
2022-12-31T02:30:11.753Z,77.38
2022-12-31T02:33:02.781Z,77.40
2022-12-31T02:35:38.512Z,76.97
2022-12-31T02:38:12.341Z,77.57
2022-12-31T02:40:41.317Z,76.05
2022-12-31T02:43:09.847Z,78.18
2022-12-31T02:48:43.747Z,75.53
2022-12-31T02:51:32.625Z,76.15
2022-12-31T02:54:25.603Z,76.18
2022-12-31T02:57:06.635Z,76.65
2022-12-31T02:59:59.120Z,76.22
2022-12-31T03:02:34.276Z,77.20
2022-12-31T03:07:33.644Z,76.05
2022-12-31T03:10:02.458Z,75.63
2022-12-31T03:12:47.665Z,75.60
2022-12-31T03:15:22.719Z,76.63
2022-12-31T03:17:57.126Z,76.40
2022-12-31T03:20:48.542Z,75.88
2022-12-31T03:23:22.476Z,77.88
2022-12-31T03:25:50.143Z,75.95
2022-12-31T03:28:20.729Z,76.85
2022-12-31T03:30:52.082Z,76.68
2022-12-31T03:33:23.286Z,75.25
2022-12-31T03:35:52.436Z,76.07
2022-12-31T03:38:21.304Z,74.90
2022-12-31T03:40:52.551Z,77.28
2022-12-31T03:43:21.771Z,75.47
2022-12-31T03:45:51.753Z,75.90
2022-12-31T03:50:51.808Z,77.80
2022-12-31T03:53:20.282Z,77.22
2022-12-31T03:55:53.298Z,74.78
2022-12-31T03:58:22.676Z,86.35
2022-12-31T04:00:51.895Z,81.03
2022-12-31T04:03:21.850Z,78.63
2022-12-31T04:05:55.078Z,78.07
2022-12-31T04:08:23.576Z,79.90
2022-12-31T04:10:52.098Z,78.18
2022-12-31T04:13:20.493Z,78.55
2022-12-31T04:15:52.074Z,77.55
2022-12-31T04:18:21.886Z,79.50
2022-12-31T04:20:50.347Z,78.60
2022-12-31T04:23:18.974Z,77.43
2022-12-31T04:25:47.541Z,77.38
2022-12-31T04:28:16.027Z,79.28
2022-12-31T04:30:44.848Z,77.60
2022-12-31T04:33:13.497Z,79.05
2022-12-31T04:35:43.342Z,77.93
2022-12-31T04:38:11.942Z,78.47
2022-12-31T04:43:29.640Z,75.93
2022-12-31T04:45:58.172Z,76.60
2022-12-31T04:48:26.726Z,77.07
2022-12-31T04:50:56.521Z,76.80
2022-12-31T04:53:25.081Z,77.47
2022-12-31T05:00:54.679Z,74.22
2022-12-31T05:03:25.429Z,76.15
2022-12-31T05:05:55.621Z,77.32
2022-12-31T05:08:24.105Z,75.47
2022-12-31T05:10:52.588Z,76.50
2022-12-31T05:13:21.070Z,76.25
2022-12-31T05:15:49.469Z,75.75
2022-12-31T05:18:18.423Z,74.28
2022-12-31T05:20:47.095Z,75.45
2022-12-31T05:23:18.838Z,75.15
2022-12-31T05:28:17.943Z,73.88
2022-12-31T05:30:49.883Z,74.13
2022-12-31T05:33:18.401Z,75.13
2022-12-31T05:35:47.262Z,75.45
2022-12-31T05:38:17.176Z,74.80
2022-12-31T05:40:45.761Z,73.60
2022-12-31T05:43:14.270Z,72.80
2022-12-31T05:45:42.626Z,75.10
2022-12-31T05:48:11.144Z,72.65
2022-12-31T05:50:39.551Z,72.20
2022-12-31T05:53:07.939Z,72.55
2022-12-31T05:55:37.803Z,72.63
2022-12-31T05:58:06.220Z,72.47
2022-12-31T06:00:34.669Z,74.50
2022-12-31T06:03:03.166Z,73.63
2022-12-31T06:05:31.682Z,72.43
2022-12-31T06:08:00.176Z,72.25
2022-12-31T06:10:28.581Z,72.82
2022-12-31T06:12:58.394Z,73.55
2022-12-31T06:15:26.888Z,73.13
2022-12-31T06:17:55.299Z,72.13
2022-12-31T06:20:24.009Z,72.70
2022-12-31T06:22:52.400Z,73.25
2022-12-31T06:25:20.804Z,72.88
2022-12-31T06:27:49.225Z,73.95
2022-12-31T06:30:19.371Z,72.72
2022-12-31T06:32:47.855Z,73.78
2022-12-31T06:35:16.449Z,72.72
2022-12-31T06:37:44.918Z,72.50
2022-12-31T06:40:14.538Z,72.85
2022-12-31T06:42:43.446Z,73.18
2022-12-31T06:45:12.676Z,73.68
2022-12-31T06:47:42.759Z,74.13
2022-12-31T06:50:11.315Z,73.38
2022-12-31T06:52:39.790Z,73.10
2022-12-31T06:55:10.578Z,73.63
2022-12-31T07:18:42.945Z,72.55
2022-12-31T07:21:14.628Z,75.78
2022-12-31T07:26:46.901Z,73.30
2022-12-31T07:29:32.498Z,73.85
2022-12-31T07:32:12.550Z,75.72
2022-12-31T07:34:53.205Z,73.38
2022-12-31T07:37:31.737Z,73.68
2022-12-31T07:40:10.590Z,73.25
2022-12-31T07:45:20.313Z,72.88
2022-12-31T07:50:21.081Z,72.93
2022-12-31T07:52:50.430Z,73.10
2022-12-31T07:55:18.878Z,73.95
2022-12-31T07:57:56.652Z,75.43
2022-12-31T08:00:26.190Z,73.38
2022-12-31T08:03:17.705Z,73.93
2022-12-31T08:05:59.448Z,72.47
2022-12-31T08:08:37.541Z,73.18
2022-12-31T08:11:17.307Z,73.35
2022-12-31T08:13:46.618Z,72.78
2022-12-31T08:16:16.395Z,72.68
2022-12-31T08:18:45.634Z,73.22
2022-12-31T08:21:37.463Z,74.43
2022-12-31T08:24:17.411Z,72.65
2022-12-31T08:29:37.006Z,72.53
2022-12-31T08:34:51.356Z,71.07
2022-12-31T08:37:31.828Z,72.45
2022-12-31T08:40:16.195Z,72.70
2022-12-31T08:42:57.048Z,80.35
2022-12-31T08:45:30.027Z,82.22
2022-12-31T08:48:05.301Z,83.95
2022-12-31T08:50:34.585Z,83.13
2022-12-31T08:58:20.636Z,72.85
2022-12-31T09:00:54.453Z,76.40
2022-12-31T09:03:40.748Z,72.30
2022-12-31T09:08:53.969Z,72.72
2022-12-31T09:11:30.483Z,73.47
2022-12-31T09:14:22.539Z,75.22
2022-12-31T09:19:25.832Z,71.30
2022-12-31T09:21:55.227Z,73.32
2022-12-31T09:24:25.873Z,72.10
2022-12-31T09:27:05.900Z,73.13
2022-12-31T09:29:53.579Z,74.45
2022-12-31T09:32:29.490Z,73.00
2022-12-31T09:35:07.533Z,73.05
2022-12-31T09:37:46.240Z,81.95
2022-12-31T09:40:53.947Z,74.57
2022-12-31T09:44:01.876Z,74.50
2022-12-31T09:47:29.881Z,74.25
2022-12-31T09:50:21.874Z,73.38
2022-12-31T09:55:53.987Z,78.60
2022-12-31T09:58:38.420Z,74.00
2022-12-31T10:01:22.691Z,76.43
2022-12-31T10:04:41.490Z,76.30
2022-12-31T10:07:24.949Z,76.43
2022-12-31T10:10:11.992Z,75.45
2022-12-31T10:13:36.821Z,73.70
2022-12-31T10:16:34.101Z,74.20
2022-12-31T10:19:57.241Z,74.00
2022-12-31T10:25:47.741Z,72.47
2022-12-31T10:28:31.553Z,79.28
2022-12-31T10:31:15.389Z,73.90
2022-12-31T10:33:51.478Z,85.27
2022-12-31T10:36:31.453Z,85.25
2022-12-31T10:39:23.890Z,86.10
2022-12-31T10:42:49.264Z,77.10
2022-12-31T10:46:08.250Z,76.55
2022-12-31T10:49:33.898Z,76.43
2022-12-31T10:52:56.844Z,84.28
2022-12-31T10:56:01.995Z,86.60
2022-12-31T10:59:22.531Z,86.25
2022-12-31T11:02:07.288Z,78.40
2022-12-31T11:05:24.974Z,78.10
2022-12-31T11:08:12.945Z,76.95
2022-12-31T11:11:23.352Z,76.20
2022-12-31T11:14:39.411Z,75.55
2022-12-31T11:17:26.068Z,85.60
2022-12-31T11:20:16.231Z,77.10
2022-12-31T11:22:59.079Z,77.88
2022-12-31T11:25:42.719Z,75.22
2022-12-31T11:28:35.121Z,74.53
2022-12-31T11:51:02.272Z,74.57
2022-12-31T11:56:18.954Z,71.78
2022-12-31T11:58:52.975Z,73.40
2022-12-31T12:01:27.460Z,73.00
2022-12-31T12:03:56.013Z,73.13
2022-12-31T12:06:29.415Z,74.70
2022-12-31T12:09:08.093Z,76.03
2022-12-31T12:11:40.362Z,73.85
2022-12-31T12:14:22.588Z,74.03
2022-12-31T12:17:00.712Z,74.05
2022-12-31T12:19:35.632Z,75.25
2022-12-31T12:22:12.981Z,73.85
2022-12-31T12:24:41.601Z,74.18
2022-12-31T12:27:24.717Z,73.45
2022-12-31T12:29:54.595Z,73.70
2022-12-31T12:32:26.878Z,74.85
2022-12-31T12:34:55.551Z,74.78
2022-12-31T12:37:31.246Z,74.97
2022-12-31T12:40:03.064Z,75.95
2022-12-31T12:42:31.921Z,74.30
2022-12-31T12:45:12.188Z,74.57
2022-12-31T12:47:44.157Z,74.65
2022-12-31T12:50:18.458Z,78.00
2022-12-31T12:53:08.918Z,75.07
2022-12-31T12:55:48.408Z,76.40
2022-12-31T12:58:35.570Z,75.72
2022-12-31T13:01:16.006Z,76.15
2022-12-31T13:04:34.985Z,74.93
2022-12-31T13:07:28.054Z,74.47
2022-12-31T13:10:23.178Z,75.13
2022-12-31T13:13:23.479Z,76.63
2022-12-31T13:15:58.812Z,75.97
2022-12-31T13:18:50.119Z,77.78
2022-12-31T13:21:46.094Z,76.90
2022-12-31T13:24:28.820Z,75.32
2022-12-31T13:27:05.207Z,77.82
2022-12-31T13:29:36.880Z,75.25
2022-12-31T13:34:42.805Z,75.82
2022-12-31T13:37:31.853Z,77.93
2022-12-31T13:40:08.241Z,75.80
2022-12-31T13:42:43.701Z,76.45
2022-12-31T13:45:16.002Z,77.60
2022-12-31T13:47:50.688Z,79.43
2022-12-31T13:50:27.825Z,77.53
2022-12-31T13:53:04.510Z,98.55
2022-12-31T13:55:38.286Z,78.97
2022-12-31T13:58:17.161Z,77.32
2022-12-31T14:00:50.248Z,76.18
2022-12-31T14:03:25.765Z,75.57
2022-12-31T14:06:02.395Z,76.30
2022-12-31T14:08:31.020Z,76.25
2022-12-31T14:11:08.575Z,75.68
2022-12-31T14:13:58.044Z,78.13
2022-12-31T14:16:37.397Z,83.28
2022-12-31T14:19:15.911Z,77.20
2022-12-31T14:21:52.971Z,77.40
2022-12-31T14:24:37.573Z,75.32
2022-12-31T14:27:12.176Z,77.38
2022-12-31T14:29:46.802Z,76.95
2022-12-31T14:32:36.857Z,76.45
2022-12-31T14:35:30.169Z,76.82
2022-12-31T14:38:09.320Z,76.72
2022-12-31T14:40:53.284Z,76.78
2022-12-31T14:43:36.605Z,76.35
2022-12-31T14:46:17.137Z,76.72
2022-12-31T14:48:59.206Z,78.13
2022-12-31T14:51:30.280Z,79.72
2022-12-31T14:54:00.500Z,78.03
2022-12-31T14:56:33.522Z,78.80
2022-12-31T14:59:03.690Z,77.28
2022-12-31T15:01:32.284Z,78.32
2022-12-31T15:04:11.955Z,79.97
2022-12-31T15:06:56.320Z,138.35
2022-12-31T15:10:00.914Z,98.18
2022-12-31T15:13:06.368Z,81.18
2022-12-31T15:16:08.383Z,84.57
2022-12-31T15:19:03.236Z,95.15
2022-12-31T15:21:59.255Z,87.45
2022-12-31T15:24:31.131Z,79.72
2022-12-31T15:27:03.196Z,79.75
2022-12-31T15:29:34.845Z,79.75
2022-12-31T15:34:35.178Z,85.18
2022-12-31T15:37:06.648Z,83.35
2022-12-31T15:39:44.437Z,85.07
2022-12-31T15:42:49.397Z,84.15
2022-12-31T15:45:25.748Z,88.07
2022-12-31T15:47:59.229Z,79.65
2022-12-31T15:50:28.924Z,85.00
2022-12-31T15:52:59.379Z,83.45
2022-12-31T15:55:34.338Z,79.93
2022-12-31T15:58:06.897Z,92.00
2022-12-31T16:00:53.665Z,86.88
2022-12-31T16:03:25.417Z,98.88
2022-12-31T16:05:57.968Z,88.05
2022-12-31T16:08:30.088Z,87.10
2022-12-31T16:11:00.471Z,95.00
2022-12-31T16:13:30.452Z,97.15
2022-12-31T16:16:04.873Z,86.25
2022-12-31T16:18:40.890Z,99.55
2022-12-31T16:21:30.019Z,95.30
2022-12-31T16:24:00.491Z,82.90
2022-12-31T16:26:38.071Z,162.50
2022-12-31T16:29:06.735Z,149.98
2022-12-31T16:31:35.358Z,94.22
2022-12-31T16:34:13.146Z,84.93
2022-12-31T16:36:42.115Z,87.03
2022-12-31T16:39:35.466Z,85.80
2022-12-31T16:42:23.449Z,97.15
2022-12-31T16:44:54.471Z,85.43
2022-12-31T16:47:28.592Z,78.93
2022-12-31T16:50:03.273Z,87.97
2022-12-31T16:52:36.821Z,90.80
2022-12-31T16:55:10.749Z,80.88
2022-12-31T16:57:42.729Z,80.35
2022-12-31T17:00:20.851Z,79.88
2022-12-31T17:02:57.168Z,80.20
2022-12-31T17:05:28.886Z,80.97
2022-12-31T17:10:28.042Z,84.68
2022-12-31T17:13:27.837Z,82.80
2022-12-31T17:15:50.145Z,83.70
2022-12-31T17:18:21.598Z,79.18
2022-12-31T17:20:51.577Z,81.05
2022-12-31T17:23:27.894Z,79.40
2022-12-31T17:26:01.115Z,80.70
2022-12-31T17:28:41.670Z,81.70
2022-12-31T17:31:34.316Z,100.68
2022-12-31T17:34:24.838Z,101.75
2022-12-31T17:37:03.289Z,82.68
2022-12-31T17:39:46.081Z,107.35
2022-12-31T17:42:18.189Z,126.53
2022-12-31T17:44:48.416Z,124.38
2022-12-31T17:47:19.807Z,129.60
2022-12-31T17:49:48.623Z,90.93
2022-12-31T17:52:17.949Z,93.57
2022-12-31T17:54:46.594Z,82.45
2022-12-31T17:57:27.154Z,80.70
2022-12-31T17:59:57.295Z,81.03
2022-12-31T18:02:25.900Z,78.85
2022-12-31T18:04:54.453Z,83.50
2022-12-31T18:09:51.203Z,84.68
2022-12-31T18:12:20.254Z,87.20
2022-12-31T18:30:04.885Z,82.72
2022-12-31T18:32:36.178Z,114.97
2022-12-31T18:35:05.202Z,91.85
2022-12-31T18:37:35.699Z,87.60
2022-12-31T18:40:04.308Z,81.03
2022-12-31T18:42:33.376Z,100.03
2022-12-31T18:45:03.886Z,83.68
2022-12-31T18:47:37.482Z,81.10
2022-12-31T18:50:09.407Z,83.03
2022-12-31T18:52:38.047Z,82.88
2022-12-31T18:55:25.468Z,84.20
2022-12-31T18:57:53.929Z,83.18
2022-12-31T19:00:23.115Z,88.90
2022-12-31T19:02:51.695Z,91.63
2022-12-31T19:05:28.761Z,91.33
2022-12-31T19:07:58.193Z,81.10
2022-12-31T19:10:27.913Z,82.28
2022-12-31T19:12:56.561Z,85.47
2022-12-31T19:17:57.133Z,85.63
2022-12-31T19:27:55.160Z,98.85
2022-12-31T19:30:27.005Z,111.90
2022-12-31T19:32:55.998Z,108.25
2022-12-31T19:37:56.534Z,102.72
2022-12-31T19:40:28.294Z,103.93
2022-12-31T19:45:27.873Z,136.55
2022-12-31T19:47:57.855Z,154.88
2022-12-31T19:50:29.312Z,173.75
2022-12-31T19:53:00.315Z,147.98
2022-12-31T19:55:28.796Z,113.85
2022-12-31T19:57:57.315Z,99.75
2022-12-31T20:00:25.844Z,88.43
2022-12-31T20:05:22.976Z,84.13
2022-12-31T20:07:51.431Z,96.38
2022-12-31T20:10:21.394Z,101.90
2022-12-31T20:12:49.863Z,99.40
2022-12-31T20:15:18.495Z,93.40
2022-12-31T20:17:46.951Z,108.70
2022-12-31T20:20:15.384Z,120.43
2022-12-31T20:22:43.851Z,107.28
2022-12-31T20:27:42.031Z,89.50
2022-12-31T20:30:12.791Z,91.32
2022-12-31T20:32:41.231Z,187.43
2022-12-31T20:37:37.942Z,88.88
2022-12-31T20:40:08.306Z,95.50
2022-12-31T20:45:11.988Z,93.95
2022-12-31T20:47:40.432Z,93.30
2022-12-31T20:50:11.857Z,98.57
2022-12-31T21:05:15.428Z,79.03
2022-12-31T21:07:43.943Z,85.00
2022-12-31T21:10:12.369Z,83.68
2022-12-31T21:12:45.513Z,87.15
2022-12-31T21:15:15.650Z,80.30
2022-12-31T21:17:44.099Z,82.80
2022-12-31T21:20:13.672Z,81.68
2022-12-31T21:25:12.105Z,82.70
2022-12-31T21:27:40.550Z,91.45
2022-12-31T21:30:19.970Z,86.28
2022-12-31T21:32:50.407Z,85.70
2022-12-31T21:38:08.676Z,84.93
2022-12-31T21:40:37.144Z,82.05
2022-12-31T21:43:05.568Z,83.38
2022-12-31T21:45:35.277Z,84.30
2022-12-31T21:48:21.285Z,85.63
2022-12-31T21:50:52.403Z,82.22
2022-12-31T21:53:26.245Z,84.65
2022-12-31T21:56:12.948Z,85.22
2022-12-31T21:58:44.224Z,81.10
2022-12-31T22:01:36.774Z,87.53
2022-12-31T22:04:28.299Z,78.68
2022-12-31T22:09:24.825Z,97.38
2022-12-31T22:11:53.264Z,88.90
2022-12-31T22:14:21.731Z,83.32
2022-12-31T22:16:50.229Z,82.25
2022-12-31T22:19:20.387Z,82.63
2022-12-31T22:24:17.011Z,83.15
2022-12-31T22:26:46.919Z,84.25
2022-12-31T22:29:16.036Z,79.65
2022-12-31T22:31:44.489Z,82.18
2022-12-31T22:36:42.728Z,81.18
2022-12-31T22:39:43.953Z,99.07
2022-12-31T22:42:04.691Z,105.95
2022-12-31T22:44:33.204Z,81.53
2022-12-31T22:49:29.885Z,80.95
2022-12-31T22:52:01.860Z,81.90
2022-12-31T22:54:34.281Z,89.05
2022-12-31T22:57:02.737Z,80.68
2022-12-31T22:59:31.199Z,88.70
2022-12-31T23:01:59.690Z,103.05
2022-12-31T23:04:28.211Z,96.75
2022-12-31T23:06:56.802Z,145.60
2022-12-31T23:09:44.119Z,87.38
2022-12-31T23:12:13.188Z,96.72
2022-12-31T23:17:45.743Z,103.78
2022-12-31T23:20:34.912Z,96.07
2022-12-31T23:23:12.885Z,98.93
2022-12-31T23:25:46.762Z,97.93
2022-12-31T23:28:18.521Z,98.47
2022-12-31T23:30:47.053Z,98.63
2022-12-31T23:33:18.435Z,93.03
2022-12-31T23:35:47.205Z,88.75
2022-12-31T23:38:17.592Z,89.88
2022-12-31T23:40:47.646Z,92.10
2022-12-31T23:43:22.455Z,97.20
2022-12-31T23:45:51.704Z,98.63
2022-12-31T23:48:20.300Z,118.85
2022-12-31T23:50:53.373Z,92.57
2022-12-31T23:53:22.533Z,89.90
2022-12-31T23:55:52.835Z,86.88
2022-12-31T23:58:21.626Z,85.97
